createdAt,value
2019-05-01T00:01:39.071Z,10.27
2019-05-01T00:04:20.682Z,10.20
2019-05-01T00:06:55.203Z,10.36
2019-05-01T00:09:27.095Z,10.28
2019-05-01T00:11:58.588Z,10.40
2019-05-01T00:14:31.821Z,10.41
2019-05-01T00:17:03.866Z,10.46
2019-05-01T00:19:35.561Z,10.58
2019-05-01T00:22:07.535Z,10.61
2019-05-01T00:24:39.447Z,10.72
2019-05-01T00:27:11.033Z,10.73
2019-05-01T00:29:42.779Z,10.78
2019-05-01T00:32:14.904Z,10.85
2019-05-01T00:34:46.984Z,10.81
2019-05-01T00:37:18.835Z,10.90
2019-05-01T00:39:50.768Z,10.78
2019-05-01T00:42:22.593Z,10.87
2019-05-01T00:44:54.330Z,10.80
2019-05-01T00:47:26.150Z,10.94
2019-05-01T00:49:57.791Z,10.88
2019-05-01T00:52:29.720Z,10.84
2019-05-01T00:55:18.804Z,10.88
2019-05-01T00:57:58.705Z,10.91
2019-05-01T01:00:43.531Z,10.80
2019-05-01T01:03:15.469Z,10.78
2019-05-01T01:05:47.292Z,10.67
2019-05-01T01:08:19.190Z,10.67
2019-05-01T01:10:50.916Z,10.79
2019-05-01T01:13:22.427Z,10.77
2019-05-01T01:15:54.041Z,10.72
2019-05-01T01:18:25.491Z,10.64
2019-05-01T01:20:57.316Z,10.70
2019-05-01T01:23:29.175Z,10.66
2019-05-01T01:26:01.012Z,10.72
2019-05-01T01:28:32.723Z,10.65
2019-05-01T01:31:04.985Z,10.54
2019-05-01T01:33:36.796Z,10.44
2019-05-01T01:36:08.414Z,10.45
2019-05-01T01:38:39.981Z,10.37
2019-05-01T01:41:12.117Z,10.19
2019-05-01T01:43:54.606Z,10.22
2019-05-01T01:46:28.243Z,10.21
2019-05-01T01:49:00.186Z,10.18
2019-05-01T01:51:31.942Z,10.03
2019-05-01T01:54:03.993Z,10.11
2019-05-01T01:56:35.825Z,10.17
2019-05-01T01:59:07.737Z,10.11
2019-05-01T02:02:02.813Z,10.25
2019-05-01T02:04:56.494Z,10.15
2019-05-01T02:07:29.130Z,10.27
2019-05-01T02:10:01.470Z,10.32
2019-05-01T02:12:33.865Z,10.33
2019-05-01T02:15:05.768Z,10.39
2019-05-01T02:17:37.494Z,10.40
2019-05-01T02:20:10.120Z,10.43
2019-05-01T02:22:41.625Z,10.07
2019-05-01T02:25:14.466Z,10.28
2019-05-01T02:28:04.133Z,10.28
2019-05-01T02:30:36.065Z,10.22
2019-05-01T02:33:09.167Z,10.21
2019-05-01T02:35:40.517Z,10.17
2019-05-01T02:38:13.418Z,10.17
2019-05-01T02:40:52.272Z,10.13
2019-05-01T02:43:27.048Z,10.19
2019-05-01T02:46:01.161Z,10.23
2019-05-01T02:48:35.911Z,10.32
2019-05-01T02:51:08.037Z,10.33
2019-05-01T02:53:42.264Z,10.25
2019-05-01T02:56:25.443Z,10.30
2019-05-01T02:58:58.257Z,10.33
2019-05-01T03:01:45.418Z,10.40
2019-05-01T03:04:04.568Z,10.39
2019-05-01T03:06:37.694Z,10.38
2019-05-01T03:09:09.252Z,10.41
2019-05-01T03:11:42.887Z,10.35
2019-05-01T03:14:18.668Z,10.30
2019-05-01T03:16:52.490Z,10.30
2019-05-01T03:19:42.974Z,10.47
2019-05-01T03:22:33.049Z,10.53
2019-05-01T03:25:04.840Z,10.31
2019-05-01T03:27:36.583Z,10.33
2019-05-01T03:30:08.455Z,10.51
2019-05-01T03:32:40.519Z,10.57
2019-05-01T03:35:12.413Z,10.57
2019-05-01T03:37:45.660Z,10.58
2019-05-01T03:40:17.684Z,10.62
2019-05-01T03:42:49.756Z,10.31
2019-05-01T03:45:21.676Z,10.45
2019-05-01T03:47:55.408Z,10.59
2019-05-01T03:50:27.307Z,10.55
2019-05-01T03:52:59.442Z,10.38
2019-05-01T03:55:31.004Z,10.34
2019-05-01T03:58:03.489Z,10.26
2019-05-01T04:00:56.068Z,10.19
2019-05-01T04:03:31.595Z,10.25
2019-05-01T04:06:03.612Z,10.24
2019-05-01T04:08:35.435Z,10.24
2019-05-01T04:11:07.532Z,10.32
2019-05-01T04:13:39.368Z,10.38
2019-05-01T04:16:11.030Z,10.47
2019-05-01T04:18:42.592Z,10.55
2019-05-01T04:21:14.112Z,10.59
2019-05-01T04:23:45.899Z,10.61
2019-05-01T04:26:18.083Z,10.66
2019-05-01T04:29:05.965Z,10.81
2019-05-01T04:31:51.767Z,10.65
2019-05-01T04:34:30.280Z,10.85
2019-05-01T04:37:03.774Z,10.63
2019-05-01T04:39:36.452Z,10.80
2019-05-01T04:42:08.217Z,10.90
2019-05-01T04:44:39.951Z,10.95
2019-05-01T04:47:11.487Z,10.96
2019-05-01T04:49:43.463Z,10.99
2019-05-01T04:52:15.561Z,11.04
2019-05-01T04:54:47.660Z,11.21
2019-05-01T04:57:19.393Z,11.20
2019-05-01T04:59:51.373Z,11.13
2019-05-01T05:02:32.473Z,11.16
2019-05-01T05:05:04.409Z,11.04
2019-05-01T05:07:36.257Z,11.18
2019-05-01T05:10:09.044Z,11.10
2019-05-01T05:13:12.626Z,11.10
2019-05-01T05:15:55.852Z,11.17
2019-05-01T05:18:27.711Z,11.23
2019-05-01T05:20:59.975Z,11.28
2019-05-01T05:23:31.987Z,11.33
2019-05-01T05:26:04.101Z,11.52
2019-05-01T05:28:37.113Z,11.57
2019-05-01T05:31:10.020Z,11.70
2019-05-01T05:33:45.556Z,11.79
2019-05-01T05:36:19.805Z,11.74
2019-05-01T05:38:59.983Z,11.88
2019-05-01T05:41:33.474Z,11.80
2019-05-01T05:44:05.344Z,11.93
2019-05-01T05:46:37.342Z,12.09
2019-05-01T05:49:09.263Z,12.22
2019-05-01T05:51:54.878Z,12.29
2019-05-01T05:54:53.987Z,12.40
2019-05-01T05:57:50.819Z,12.54
2019-05-01T06:00:54.126Z,12.48
2019-05-01T06:03:46.575Z,12.72
2019-05-01T06:06:35.682Z,12.65
2019-05-01T06:09:13.964Z,12.57
2019-05-01T06:12:04.997Z,12.68
2019-05-01T06:15:06.085Z,12.85
2019-05-01T06:17:43.068Z,12.88
2019-05-01T06:20:37.526Z,13.05
2019-05-01T06:23:26.523Z,13.26
2019-05-01T06:26:02.476Z,13.58
2019-05-01T06:28:34.222Z,13.72
2019-05-01T06:31:23.053Z,13.72
2019-05-01T06:33:54.924Z,14.07
2019-05-01T06:36:26.955Z,14.27
2019-05-01T06:39:00.361Z,14.32
2019-05-01T06:41:42.560Z,14.37
2019-05-01T06:44:33.394Z,14.36
2019-05-01T06:47:24.437Z,14.31
2019-05-01T06:50:13.727Z,14.49
2019-05-01T06:52:45.946Z,14.65
2019-05-01T06:55:22.539Z,14.81
2019-05-01T06:57:52.777Z,14.97
2019-05-01T07:00:24.478Z,15.04
2019-05-01T07:02:58.477Z,15.19
2019-05-01T07:05:31.564Z,15.36
2019-05-01T07:08:04.720Z,15.53
2019-05-01T07:10:44.238Z,15.76
2019-05-01T07:13:11.066Z,15.69
2019-05-01T07:15:42.965Z,15.39
2019-05-01T07:18:18.806Z,15.38
2019-05-01T07:20:51.646Z,15.44
2019-05-01T07:23:24.659Z,15.58
2019-05-01T07:25:56.261Z,15.87
2019-05-01T07:28:34.216Z,16.12
2019-05-01T07:31:06.464Z,15.94
2019-05-01T07:33:38.272Z,16.08
2019-05-01T07:36:15.261Z,16.05
2019-05-01T07:38:44.920Z,16.22
2019-05-01T07:41:16.583Z,16.32
2019-05-01T07:44:06.205Z,16.36
2019-05-01T07:47:06.322Z,16.53
2019-05-01T07:49:59.170Z,16.80
2019-05-01T07:52:31.245Z,16.82
2019-05-01T07:55:03.008Z,16.81
2019-05-01T07:57:39.231Z,16.57
2019-05-01T08:00:12.165Z,16.58
2019-05-01T08:02:44.597Z,16.59
2019-05-01T08:05:16.470Z,16.56
2019-05-01T08:07:48.427Z,16.52
2019-05-01T08:10:20.936Z,16.28
2019-05-01T08:12:55.525Z,16.05
2019-05-01T08:15:30.279Z,15.96
2019-05-01T08:18:15.449Z,16.25
2019-05-01T08:20:52.583Z,16.63
2019-05-01T08:23:24.488Z,16.69
2019-05-01T08:25:56.314Z,16.44
2019-05-01T08:28:46.841Z,16.36
2019-05-01T08:31:44.021Z,16.31
2019-05-01T08:34:20.620Z,16.16
2019-05-01T08:36:51.345Z,15.85
2019-05-01T08:39:22.681Z,15.77
2019-05-01T08:41:54.481Z,15.64
2019-05-01T08:44:29.532Z,15.38
2019-05-01T08:47:14.758Z,15.79
2019-05-01T08:49:53.738Z,15.75
2019-05-01T08:52:25.091Z,15.80
2019-05-01T08:54:56.717Z,15.93
2019-05-01T08:57:29.034Z,16.40
2019-05-01T09:00:02.039Z,16.53
2019-05-01T09:02:36.795Z,16.32
2019-05-01T09:05:27.001Z,16.56
2019-05-01T09:07:41.347Z,16.54
2019-05-01T09:10:16.996Z,16.63
2019-05-01T09:12:48.255Z,16.57
2019-05-01T09:15:19.867Z,16.60
2019-05-01T09:17:51.775Z,16.90
2019-05-01T09:20:23.599Z,17.51
2019-05-01T09:22:55.266Z,17.91
2019-05-01T09:25:36.798Z,18.26
2019-05-01T09:28:35.960Z,18.36
2019-05-01T09:31:07.914Z,18.54
2019-05-01T09:33:39.737Z,18.39
2019-05-01T09:36:11.660Z,18.13
2019-05-01T09:38:43.341Z,18.42
2019-05-01T09:41:14.955Z,18.20
2019-05-01T09:43:46.721Z,18.42
2019-05-01T09:46:18.488Z,18.67
2019-05-01T09:48:50.077Z,18.54
2019-05-01T09:51:49.174Z,18.73
2019-05-01T09:54:25.567Z,18.49
2019-05-01T09:56:57.476Z,18.13
2019-05-01T09:59:29.127Z,18.33
2019-05-01T10:02:07.775Z,18.40
2019-05-01T10:04:38.412Z,18.42
2019-05-01T10:07:10.300Z,18.91
2019-05-01T10:09:41.826Z,19.21
2019-05-01T10:12:13.678Z,19.61
2019-05-01T10:14:45.429Z,19.91
2019-05-01T10:17:16.897Z,19.85
2019-05-01T10:19:50.212Z,19.91
2019-05-01T10:22:21.951Z,19.82
2019-05-01T10:24:53.623Z,19.79
2019-05-01T10:27:30.790Z,19.96
2019-05-01T10:30:16.386Z,19.75
2019-05-01T10:32:52.863Z,19.70
2019-05-01T10:35:42.332Z,19.12
2019-05-01T10:38:10.680Z,19.67
2019-05-01T10:40:41.472Z,19.71
2019-05-01T10:43:13.262Z,19.62
2019-05-01T10:45:45.201Z,19.92
2019-05-01T10:48:16.845Z,20.21
2019-05-01T10:50:48.237Z,20.38
2019-05-01T10:53:19.894Z,20.28
2019-05-01T10:55:51.826Z,20.60
2019-05-01T10:58:23.392Z,20.76
2019-05-01T11:01:00.827Z,20.78
2019-05-01T11:03:32.691Z,20.78
2019-05-01T11:06:04.580Z,20.95
2019-05-01T11:08:36.343Z,21.15
2019-05-01T11:11:08.154Z,21.46
2019-05-01T11:13:39.905Z,21.58
2019-05-01T11:16:11.604Z,21.53
2019-05-01T11:18:43.185Z,21.42
2019-05-01T11:21:15.076Z,21.81
2019-05-01T11:23:46.731Z,21.98
2019-05-01T11:26:18.749Z,21.89
2019-05-01T11:28:50.672Z,21.97
2019-05-01T11:31:27.995Z,22.32
2019-05-01T11:34:27.881Z,22.39
2019-05-01T11:37:12.765Z,22.33
2019-05-01T11:39:52.068Z,21.93
2019-05-01T11:42:23.650Z,21.01
2019-05-01T11:44:55.678Z,21.45
2019-05-01T11:47:27.438Z,21.22
2019-05-01T11:49:59.097Z,20.84
2019-05-01T11:52:30.760Z,20.94
2019-05-01T11:55:02.510Z,20.04
2019-05-01T11:57:34.364Z,20.30
2019-05-01T12:00:06.950Z,20.63
2019-05-01T12:02:38.899Z,20.55
2019-05-01T12:05:10.485Z,20.66
2019-05-01T12:07:42.384Z,21.28
2019-05-01T12:10:14.473Z,21.26
2019-05-01T12:12:46.398Z,21.71
2019-05-01T12:15:19.567Z,22.66
2019-05-01T12:17:50.518Z,22.80
2019-05-01T12:20:22.944Z,22.03
2019-05-01T12:22:54.758Z,21.66
2019-05-01T12:25:26.572Z,21.33
2019-05-01T12:27:58.099Z,22.23
2019-05-01T12:30:30.698Z,21.82
2019-05-01T12:33:02.361Z,21.28
2019-05-01T12:35:34.230Z,21.67
2019-05-01T12:38:07.064Z,22.45
2019-05-01T12:40:38.674Z,23.27
2019-05-01T12:43:12.269Z,23.38
2019-05-01T12:45:45.706Z,23.04
2019-05-01T12:48:17.356Z,23.20
2019-05-01T12:50:50.545Z,23.69
2019-05-01T12:53:26.364Z,24.22
2019-05-01T12:56:22.579Z,24.33
2019-05-01T12:58:55.949Z,24.64
2019-05-01T13:01:28.061Z,25.18
2019-05-01T13:03:59.795Z,24.56
2019-05-01T13:06:31.589Z,25.19
2019-05-01T13:09:03.241Z,24.87
2019-05-01T13:11:36.686Z,25.38
2019-05-01T13:14:08.485Z,25.68
2019-05-01T13:16:40.315Z,25.79
2019-05-01T13:19:11.956Z,26.27
2019-05-01T13:21:43.838Z,26.17
2019-05-01T13:24:15.662Z,25.56
2019-05-01T13:27:00.049Z,25.66
2019-05-01T13:29:50.782Z,25.58
2019-05-01T13:32:39.966Z,24.78
2019-05-01T13:35:12.126Z,24.93
2019-05-01T13:37:43.918Z,23.95
2019-05-01T13:40:17.200Z,23.26
2019-05-01T13:42:48.936Z,22.55
2019-05-01T13:45:22.082Z,22.04
2019-05-01T13:47:54.497Z,21.06
2019-05-01T13:50:26.775Z,20.75
2019-05-01T13:52:58.614Z,21.23
2019-05-01T13:55:30.590Z,21.03
2019-05-01T13:58:02.406Z,22.13
2019-05-01T14:00:34.358Z,22.44
2019-05-01T14:03:06.112Z,23.18
2019-05-01T14:05:37.990Z,22.84
2019-05-01T14:08:09.783Z,22.46
2019-05-01T14:10:41.322Z,22.36
2019-05-01T14:13:13.054Z,22.25
2019-05-01T14:15:44.706Z,21.23
2019-05-01T14:18:17.733Z,20.54
2019-05-01T14:21:11.438Z,20.05
2019-05-01T14:23:59.768Z,19.56
2019-05-01T14:26:32.118Z,19.82
2019-05-01T14:29:03.820Z,19.45
2019-05-01T14:31:35.462Z,19.62
2019-05-01T14:34:06.860Z,19.66
2019-05-01T14:36:38.666Z,20.02
2019-05-01T14:39:10.428Z,20.78
2019-05-01T14:41:42.230Z,21.90
2019-05-01T14:44:14.116Z,22.14
2019-05-01T14:46:45.899Z,23.12
2019-05-01T14:49:17.948Z,23.27
2019-05-01T14:51:49.623Z,24.03
2019-05-01T14:54:22.505Z,24.86
2019-05-01T14:56:53.987Z,24.45
2019-05-01T14:59:25.790Z,24.05
2019-05-01T15:01:57.550Z,24.71
2019-05-01T15:04:29.366Z,24.89
2019-05-01T15:07:01.219Z,24.18
2019-05-01T15:09:32.882Z,24.00
2019-05-01T15:12:07.341Z,23.13
2019-05-01T15:15:00.614Z,22.22
2019-05-01T15:17:53.171Z,21.02
2019-05-01T15:20:24.976Z,19.82
2019-05-01T15:22:56.694Z,19.21
2019-05-01T15:25:28.541Z,18.67
2019-05-01T15:28:00.357Z,18.05
2019-05-01T15:30:31.945Z,17.62
2019-05-01T15:33:03.456Z,17.40
2019-05-01T15:35:35.047Z,17.06
2019-05-01T15:38:06.985Z,17.08
2019-05-01T15:40:48.791Z,17.12
2019-05-01T15:43:26.838Z,16.93
2019-05-01T15:45:58.721Z,16.81
2019-05-01T15:48:30.862Z,16.61
2019-05-01T15:51:02.730Z,16.58
2019-05-01T15:53:34.375Z,16.28
2019-05-01T15:56:06.224Z,16.32
2019-05-01T15:58:38.054Z,16.13
2019-05-01T16:01:09.631Z,16.14
2019-05-01T16:03:41.376Z,16.23
2019-05-01T16:06:13.126Z,16.16
2019-05-01T16:08:44.855Z,16.01
2019-05-01T16:11:35.613Z,15.98
2019-05-01T16:14:07.216Z,15.88
2019-05-01T16:16:38.975Z,15.81
2019-05-01T16:19:10.637Z,15.75
2019-05-01T16:21:42.513Z,15.61
2019-05-01T16:24:14.103Z,15.34
2019-05-01T16:26:46.124Z,15.26
2019-05-01T16:29:17.903Z,15.08
2019-05-01T16:31:49.687Z,15.10
2019-05-01T16:34:21.391Z,14.95
2019-05-01T16:36:53.101Z,14.99
2019-05-01T16:39:52.824Z,14.97
2019-05-01T16:42:32.150Z,14.95
2019-05-01T16:45:04.501Z,14.84
2019-05-01T16:47:36.506Z,14.67
2019-05-01T16:50:09.244Z,14.61
2019-05-01T16:52:43.427Z,14.44
2019-05-01T16:55:15.294Z,14.47
2019-05-01T16:57:46.965Z,14.38
2019-05-01T17:00:20.709Z,14.30
2019-05-01T17:03:00.762Z,14.20
2019-05-01T17:05:43.581Z,14.10
2019-05-01T17:08:20.450Z,13.98
2019-05-01T17:10:52.302Z,13.67
2019-05-01T17:13:23.891Z,13.87
2019-05-01T17:15:55.327Z,13.54
2019-05-01T17:18:27.202Z,13.64
2019-05-01T17:20:58.885Z,13.58
2019-05-01T17:23:30.769Z,13.56
2019-05-01T17:26:02.420Z,13.55
2019-05-01T17:28:33.922Z,13.59
2019-05-01T17:31:05.771Z,13.37
2019-05-01T17:33:37.568Z,13.39
2019-05-01T17:36:09.196Z,13.23
2019-05-01T17:38:49.406Z,13.03
2019-05-01T17:41:14.293Z,13.07
2019-05-01T17:43:49.342Z,13.01
2019-05-01T17:46:19.914Z,13.02
2019-05-01T17:48:51.747Z,13.02
2019-05-01T17:51:23.615Z,13.15
2019-05-01T17:53:55.125Z,13.09
2019-05-01T17:56:28.561Z,13.14
2019-05-01T17:59:00.410Z,13.10
2019-05-01T18:02:05.278Z,12.97
2019-05-01T18:05:08.138Z,12.91
2019-05-01T18:07:40.112Z,12.85
2019-05-01T18:10:11.891Z,12.88
2019-05-01T18:12:43.427Z,12.87
2019-05-01T18:15:14.997Z,12.87
2019-05-01T18:17:46.874Z,12.88
2019-05-01T18:20:18.661Z,12.80
2019-05-01T18:23:15.842Z,12.83
2019-05-01T18:25:51.610Z,12.83
2019-05-01T18:28:53.971Z,12.88
2019-05-01T18:31:28.027Z,12.85
2019-05-01T18:34:02.504Z,12.67
2019-05-01T18:36:37.172Z,12.68
2019-05-01T18:39:21.911Z,12.68
2019-05-01T18:41:54.280Z,12.76
2019-05-01T18:44:26.122Z,12.68
2019-05-01T18:46:58.174Z,12.76
2019-05-01T18:49:30.096Z,12.69
2019-05-01T18:52:02.045Z,12.76
2019-05-01T18:54:35.113Z,12.66
2019-05-01T18:57:06.287Z,12.53
2019-05-01T18:59:38.158Z,12.51
2019-05-01T19:02:11.528Z,12.53
2019-05-01T19:04:43.316Z,12.55
2019-05-01T19:07:15.114Z,12.51
2019-05-01T19:09:47.740Z,12.55
2019-05-01T19:12:19.754Z,12.46
2019-05-01T19:14:51.552Z,12.50
2019-05-01T19:17:23.094Z,12.55
2019-05-01T19:19:54.977Z,12.55
2019-05-01T19:22:26.395Z,12.58
2019-05-01T19:24:58.045Z,12.63
2019-05-01T19:27:29.961Z,12.56
2019-05-01T19:30:01.457Z,12.61
2019-05-01T19:32:34.197Z,12.58
2019-05-01T19:35:06.047Z,12.60
2019-05-01T19:37:37.812Z,12.63
2019-05-01T19:40:10.345Z,12.63
2019-05-01T19:42:42.223Z,12.66
2019-05-01T19:45:13.729Z,12.65
2019-05-01T19:47:45.933Z,12.61
2019-05-01T19:50:18.026Z,12.64
2019-05-01T19:52:49.615Z,12.65
2019-05-01T19:55:21.352Z,12.57
2019-05-01T19:57:53.080Z,12.66
2019-05-01T20:00:53.094Z,12.65
2019-05-01T20:03:30.701Z,12.60
2019-05-01T20:06:05.673Z,12.61
2019-05-01T20:08:34.317Z,12.62
2019-05-01T20:11:09.392Z,12.56
2019-05-01T20:13:39.937Z,12.49
2019-05-01T20:16:12.988Z,12.60
2019-05-01T20:18:44.413Z,12.57
2019-05-01T20:21:16.319Z,12.59
2019-05-01T20:23:48.238Z,12.59
2019-05-01T20:26:19.750Z,12.36
2019-05-01T20:28:51.516Z,12.42
2019-05-01T20:31:25.219Z,12.45
2019-05-01T20:33:56.618Z,12.38
2019-05-01T20:36:28.222Z,12.36
2019-05-01T20:39:00.256Z,12.46
2019-05-01T20:41:33.541Z,12.47
2019-05-01T20:44:05.417Z,12.36
2019-05-01T20:46:37.049Z,12.51
2019-05-01T20:49:08.716Z,12.52
2019-05-01T20:51:40.658Z,12.51
2019-05-01T20:54:12.551Z,12.44
2019-05-01T20:56:49.825Z,12.52
2019-05-01T20:59:21.520Z,12.52
2019-05-01T21:01:53.034Z,12.52
2019-05-01T21:04:35.488Z,12.48
2019-05-01T21:07:31.813Z,12.54
2019-05-01T21:10:04.238Z,12.55
2019-05-01T21:12:36.664Z,12.39
2019-05-01T21:15:08.438Z,12.41
2019-05-01T21:17:44.201Z,12.25
2019-05-01T21:20:13.844Z,12.21
2019-05-01T21:22:45.335Z,12.24
2019-05-01T21:25:17.005Z,12.18
2019-05-01T21:27:48.661Z,12.21
2019-05-01T21:30:20.355Z,12.15
2019-05-01T21:32:54.103Z,12.16
2019-05-01T21:35:25.377Z,12.15
2019-05-01T21:37:56.942Z,12.13
2019-05-01T21:40:38.692Z,12.17
2019-05-01T21:43:03.271Z,12.20
2019-05-01T21:45:35.118Z,12.18
2019-05-01T21:48:06.596Z,12.23
2019-05-01T21:50:38.415Z,12.25
2019-05-01T21:53:10.248Z,12.22
2019-05-01T21:55:42.124Z,12.06
2019-05-01T21:58:15.306Z,12.04
2019-05-01T22:00:46.428Z,12.07
2019-05-01T22:03:21.578Z,12.02
2019-05-01T22:05:51.364Z,11.97
2019-05-01T22:08:23.565Z,12.02
2019-05-01T22:10:57.611Z,12.02
2019-05-01T22:13:29.342Z,11.78
2019-05-01T22:16:18.408Z,11.87
2019-05-01T22:18:57.703Z,11.91
2019-05-01T22:21:36.461Z,11.91
2019-05-01T22:24:27.461Z,12.00
2019-05-01T22:27:08.839Z,11.91
2019-05-01T22:29:46.689Z,11.94
2019-05-01T22:32:27.773Z,11.88
2019-05-01T22:35:19.939Z,11.82
2019-05-01T22:37:51.696Z,11.96
2019-05-01T22:40:48.535Z,11.95
2019-05-01T22:43:20.344Z,11.89
2019-05-01T22:45:56.316Z,11.91
2019-05-01T22:48:25.306Z,11.87
2019-05-01T22:51:49.114Z,11.92
2019-05-01T22:54:27.428Z,11.92
2019-05-01T22:56:59.024Z,11.77
2019-05-01T22:59:30.597Z,11.72
2019-05-01T23:02:10.822Z,11.74
2019-05-01T23:04:42.427Z,11.75
2019-05-01T23:07:16.868Z,11.71
2019-05-01T23:09:48.230Z,11.73
2019-05-01T23:12:20.036Z,11.76
2019-05-01T23:14:51.941Z,11.69
2019-05-01T23:17:34.918Z,11.72
2019-05-01T23:20:08.060Z,11.76
2019-05-01T23:22:39.676Z,11.80
2019-05-01T23:25:11.264Z,11.87
2019-05-01T23:27:42.898Z,11.93
2019-05-01T23:30:16.762Z,11.95
2019-05-01T23:32:48.720Z,11.83
2019-05-01T23:35:20.433Z,11.84
2019-05-01T23:37:52.592Z,11.76
2019-05-01T23:40:24.292Z,11.73
2019-05-01T23:42:55.831Z,11.74
2019-05-01T23:45:27.733Z,11.65
2019-05-01T23:47:59.889Z,11.59
2019-05-01T23:50:31.685Z,11.56
2019-05-01T23:53:03.485Z,11.51
2019-05-01T23:55:35.114Z,11.50
2019-05-01T23:58:06.690Z,11.48
